createdAt,value
2022-08-04T00:02:12.733Z,100976.09
2022-08-04T00:06:04.242Z,100975.48
2022-08-04T00:09:55.697Z,100978.71
2022-08-04T00:13:58.152Z,100976.06
2022-08-04T00:17:52.186Z,100977.92
2022-08-04T00:21:39.816Z,100976.49
2022-08-04T00:25:28.720Z,100975.51
2022-08-04T00:29:04.796Z,100974.61
2022-08-04T00:32:53.587Z,100975.55
2022-08-04T00:36:42.409Z,100972.09
2022-08-04T00:40:31.211Z,100973.52
2022-08-04T00:44:24.274Z,100973.20
2022-08-04T00:48:31.056Z,100973.91
2022-08-04T00:52:30.975Z,100973.34
2022-08-04T00:56:34.459Z,100977.55
2022-08-04T01:00:31.813Z,100974.42
2022-08-04T01:04:41.756Z,100972.25
2022-08-04T01:08:38.045Z,100976.21
2022-08-04T01:12:35.577Z,100981.95
2022-08-04T01:16:24.370Z,100983.64
2022-08-04T01:20:08.444Z,100981.06
2022-08-04T01:23:59.973Z,100978.45
2022-08-04T01:28:06.757Z,100980.27
2022-08-04T01:32:02.489Z,100976.64
2022-08-04T01:35:57.084Z,100975.39
2022-08-04T01:40:01.300Z,100977.95
2022-08-04T01:43:51.270Z,100979.27
2022-08-04T01:47:40.439Z,100976.16
2022-08-04T01:51:29.266Z,100976.76
2022-08-04T01:55:08.539Z,100977.15
2022-08-04T01:58:57.338Z,100976.86
2022-08-04T02:02:46.575Z,100972.19
2022-08-04T02:06:35.232Z,100970.08
2022-08-04T02:10:22.252Z,100972.54
2022-08-04T02:14:19.889Z,100971.73
2022-08-04T02:18:06.894Z,100970.01
2022-08-04T02:21:56.618Z,100967.91
2022-08-04T02:25:48.289Z,100972.61
2022-08-04T02:29:58.131Z,100971.09
2022-08-04T02:33:47.043Z,100969.45
2022-08-04T02:37:35.924Z,100966.87
2022-08-04T02:41:18.594Z,100965.69
2022-08-04T02:45:07.497Z,100960.73
2022-08-04T02:48:56.437Z,100963.94
2022-08-04T02:52:30.747Z,100957.10
2022-08-04T02:56:22.268Z,100960.64
2022-08-04T02:59:44.910Z,100962.27
2022-08-04T03:03:46.049Z,100962.72
2022-08-04T03:08:01.884Z,100956.13
2022-08-04T03:11:53.502Z,100960.40
2022-08-04T03:15:57.135Z,100958.88
2022-08-04T03:19:47.346Z,100960.95
2022-08-04T03:23:53.174Z,100958.02
2022-08-04T03:27:39.025Z,100961.05
2022-08-04T03:31:27.667Z,100961.00
2022-08-04T03:35:25.321Z,100965.17
2022-08-04T03:39:17.261Z,100966.33
2022-08-04T03:43:59.081Z,100963.80
2022-08-04T03:47:01.370Z,100956.95
2022-08-04T03:50:41.181Z,100959.27
2022-08-04T03:54:30.658Z,100965.02
2022-08-04T03:58:33.713Z,100964.05
2022-08-04T04:02:12.973Z,100968.77
2022-08-04T04:06:20.205Z,100971.45
2022-08-04T04:10:28.863Z,100969.00
2022-08-04T04:14:18.959Z,100969.95
2022-08-04T04:18:16.886Z,100971.48
2022-08-04T04:22:02.791Z,100974.11
2022-08-04T04:26:03.928Z,100975.01
2022-08-04T04:29:51.114Z,100977.72
2022-08-04T04:33:47.606Z,100974.21
2022-08-04T04:37:33.724Z,100976.02
2022-08-04T04:41:41.936Z,100975.27
2022-08-04T04:44:33.533Z,100980.83
2022-08-04T04:48:35.282Z,100981.21
2022-08-04T04:51:58.140Z,100983.87
2022-08-04T04:55:55.941Z,100982.70
2022-08-04T04:59:37.402Z,100984.38
2022-08-04T05:03:34.502Z,100983.40
2022-08-04T05:07:47.522Z,100986.63
2022-08-04T05:11:46.898Z,100985.83
2022-08-04T05:15:35.887Z,100987.88
2022-08-04T05:19:26.374Z,100989.05
2022-08-04T05:23:24.078Z,100985.47
2022-08-04T05:27:12.948Z,100982.09
2022-08-04T05:31:10.926Z,100987.02
2022-08-04T05:35:02.595Z,100992.17
2022-08-04T05:38:51.859Z,100993.39
2022-08-04T05:42:40.715Z,100993.78
2022-08-04T05:46:30.208Z,100994.02
2022-08-04T05:50:19.157Z,100992.70
2022-08-04T05:54:08.002Z,100997.38
2022-08-04T05:57:57.496Z,100999.91
2022-08-04T06:01:55.801Z,101001.28
2022-08-04T06:05:46.024Z,101008.81
2022-08-04T06:09:34.983Z,101008.93
2022-08-04T06:13:49.077Z,101008.48
2022-08-04T06:19:58.816Z,101012.35
2022-08-04T06:21:43.876Z,101012.21
2022-08-04T06:25:32.962Z,101009.63
2022-08-04T06:29:21.956Z,101009.34
2022-08-04T06:33:17.520Z,101011.85
2022-08-04T06:37:06.435Z,101010.89
2022-08-04T06:40:55.625Z,101008.10
2022-08-04T06:44:44.598Z,101012.23
2022-08-04T06:48:33.833Z,101012.36
2022-08-04T06:52:23.050Z,101010.58
2022-08-04T06:56:01.365Z,101014.69
2022-08-04T06:59:41.860Z,101016.23
2022-08-04T07:03:31.873Z,101014.86
2022-08-04T07:07:21.271Z,101018.48
2022-08-04T07:11:18.286Z,101019.90
2022-08-04T07:15:09.552Z,101017.06
2022-08-04T07:19:10.554Z,101018.74
2022-08-04T07:23:01.428Z,101016.35
2022-08-04T07:26:53.765Z,101012.30
2022-08-04T07:30:43.662Z,101008.95
2022-08-04T07:34:33.803Z,101010.11
2022-08-04T07:38:27.498Z,101013.52
2022-08-04T07:42:17.205Z,101011.83
2022-08-04T07:46:09.567Z,101006.73
2022-08-04T07:49:59.185Z,101005.45
2022-08-04T07:53:53.565Z,101005.80
2022-08-04T07:57:46.553Z,101005.02
2022-08-04T08:01:36.026Z,101002.51
2022-08-04T08:05:25.618Z,101002.23
2022-08-04T08:09:15.096Z,101001.05
2022-08-04T08:13:04.750Z,100998.09
2022-08-04T08:16:54.088Z,100995.00
2022-08-04T08:20:41.963Z,100988.02
2022-08-04T08:24:34.474Z,100984.55
2022-08-04T08:28:24.189Z,100980.09
2022-08-04T08:32:14.373Z,100977.70
2022-08-04T08:36:03.610Z,100976.83
2022-08-04T08:39:55.978Z,100974.10
2022-08-04T08:44:09.624Z,100978.55
2022-08-04T08:48:27.864Z,100976.39
2022-08-04T08:53:00.799Z,100976.20
2022-08-04T08:56:51.863Z,100974.17
2022-08-04T09:00:58.669Z,100975.16
2022-08-04T09:05:01.591Z,100974.60
2022-08-04T09:08:49.613Z,100973.50
2022-08-04T09:13:03.262Z,100973.31
2022-08-04T09:16:58.933Z,100971.85
2022-08-04T09:20:51.598Z,100971.88
2022-08-04T09:24:59.403Z,100973.24
2022-08-04T09:28:54.383Z,100967.42
2022-08-04T09:33:02.190Z,100963.60
2022-08-04T09:36:51.810Z,100961.79
2022-08-04T09:40:53.636Z,100963.69
2022-08-04T09:45:05.835Z,100964.36
2022-08-04T09:48:56.073Z,100963.60
2022-08-04T09:52:52.793Z,100967.30
2022-08-04T09:56:51.259Z,100960.83
2022-08-04T10:00:47.412Z,100964.79
2022-08-04T10:04:37.136Z,100957.31
2022-08-04T10:08:38.345Z,100949.63
2022-08-04T10:12:42.837Z,100949.20
2022-08-04T10:16:33.469Z,100943.36
2022-08-04T10:19:47.274Z,100947.07
2022-08-04T10:23:13.278Z,100946.40
2022-08-04T10:26:35.292Z,100943.77
2022-08-04T10:29:24.106Z,100943.64
2022-08-04T10:33:17.039Z,100939.67
2022-08-04T10:36:17.778Z,100935.52
2022-08-04T10:39:42.936Z,100937.26
2022-08-04T10:42:45.124Z,100940.83
2022-08-04T10:45:24.249Z,100937.66
2022-08-04T10:48:34.893Z,100935.92
2022-08-04T10:51:29.062Z,100927.46
2022-08-04T10:54:11.019Z,100926.91
2022-08-04T10:56:46.752Z,100928.91
2022-08-04T10:59:48.214Z,100930.60
2022-08-04T11:03:14.793Z,100922.30
2022-08-04T11:05:55.466Z,100916.43
2022-08-04T11:08:49.558Z,100915.77
2022-08-04T11:11:56.846Z,100917.04
2022-08-04T11:15:07.044Z,100913.70
2022-08-04T11:18:06.690Z,100909.88
2022-08-04T11:21:18.241Z,100907.00
2022-08-04T11:24:05.727Z,100905.05
2022-08-04T11:27:04.427Z,100908.23
2022-08-04T11:30:07.625Z,100906.54
2022-08-04T11:33:29.535Z,100903.17
2022-08-04T11:36:19.417Z,100907.52
2022-08-04T11:39:04.936Z,100904.23
2022-08-04T11:41:58.421Z,100896.11
2022-08-04T11:44:38.341Z,100901.70
2022-08-04T11:47:38.999Z,100900.40
2022-08-04T11:50:10.636Z,100899.52
2022-08-04T11:53:02.792Z,100894.19
2022-08-04T11:56:08.340Z,100892.98
2022-08-04T11:58:26.791Z,100895.77
2022-08-04T12:01:21.599Z,100893.41
2022-08-04T12:04:30.871Z,100894.38
2022-08-04T12:07:31.645Z,100898.00
2022-08-04T12:10:42.793Z,100888.67
2022-08-04T12:13:18.901Z,100884.45
2022-08-04T12:16:03.807Z,100887.27
2022-08-04T12:18:40.721Z,100888.38
2022-08-04T12:21:28.483Z,100886.77
2022-08-04T12:24:07.363Z,100886.00
2022-08-04T12:27:26.022Z,100890.09
2022-08-04T12:31:00.654Z,100887.98
2022-08-04T12:33:03.936Z,100886.45
2022-08-04T12:36:10.280Z,100885.13
2022-08-04T12:38:33.564Z,100887.86
2022-08-04T12:41:07.655Z,100883.23
2022-08-04T12:43:42.707Z,100875.41
2022-08-04T12:46:19.959Z,100875.95
2022-08-04T12:48:50.371Z,100875.73
2022-08-04T12:51:30.977Z,100871.02
2022-08-04T12:54:29.212Z,100865.23
2022-08-04T12:56:59.297Z,100856.33
2022-08-04T12:59:27.997Z,100865.07
2022-08-04T13:02:09.427Z,100862.36
2022-08-04T13:04:51.728Z,100856.52
2022-08-04T13:07:39.026Z,100857.19
2022-08-04T13:10:18.333Z,100853.88
2022-08-04T13:13:15.030Z,100848.54
2022-08-04T13:15:47.055Z,100846.27
2022-08-04T13:18:30.102Z,100843.15
2022-08-04T13:21:49.899Z,100842.96
2022-08-04T13:24:32.124Z,100838.16
2022-08-04T13:27:19.087Z,100832.09
2022-08-04T13:30:00.573Z,100839.73
2022-08-04T13:32:34.374Z,100835.48
2022-08-04T13:35:17.242Z,100836.59
2022-08-04T13:37:46.616Z,100831.38
2022-08-04T13:40:38.554Z,100829.76
2022-08-04T13:44:15.455Z,100831.23
2022-08-04T13:46:05.449Z,100831.65
2022-08-04T13:48:40.351Z,100832.92
2022-08-04T13:51:12.273Z,100837.47
2022-08-04T13:53:42.543Z,100827.92
2022-08-04T13:56:16.138Z,100828.38
2022-08-04T13:58:47.580Z,100826.98
2022-08-04T14:01:22.478Z,100825.73
2022-08-04T14:04:13.301Z,100825.30
2022-08-04T14:06:50.562Z,100821.33
2022-08-04T14:09:21.741Z,100819.42
2022-08-04T14:12:09.987Z,100816.73
2022-08-04T14:14:53.893Z,100812.86
2022-08-04T14:17:30.809Z,100806.94
2022-08-04T14:20:10.982Z,100805.32
2022-08-04T14:22:39.317Z,100797.08
2022-08-04T14:25:17.110Z,100798.90
2022-08-04T14:27:51.146Z,100793.79
2022-08-04T14:30:24.474Z,100791.73
2022-08-04T14:34:02.570Z,100786.92
2022-08-04T14:35:59.491Z,100788.71
2022-08-04T14:38:42.896Z,100794.02
2022-08-04T14:41:11.582Z,100792.09
2022-08-04T14:44:07.302Z,100792.73
2022-08-04T14:46:50.760Z,100786.48
2022-08-04T14:49:19.875Z,100783.48
2022-08-04T14:52:00.154Z,100783.79
2022-08-04T14:54:31.949Z,100786.05
2022-08-04T14:57:05.786Z,100788.54
2022-08-04T14:59:59.489Z,100788.02
2022-08-04T15:02:32.576Z,100786.80
2022-08-04T15:06:00.857Z,100781.00
2022-08-04T15:07:55.813Z,100780.19
2022-08-04T15:10:24.248Z,100779.75
2022-08-04T15:12:53.265Z,100776.67
2022-08-04T15:15:36.639Z,100781.70
2022-08-04T15:18:13.175Z,100776.47
2022-08-04T15:20:44.508Z,100768.87
2022-08-04T15:23:24.152Z,100767.14
2022-08-04T15:26:10.487Z,100769.61
2022-08-04T15:28:41.654Z,100769.45
2022-08-04T15:32:04.612Z,100765.40
2022-08-04T15:33:59.482Z,100766.88
2022-08-04T15:36:56.230Z,100762.73
2022-08-04T15:39:38.367Z,100765.35
2022-08-04T15:42:22.229Z,100760.80
2022-08-04T15:45:10.555Z,100758.98
2022-08-04T15:47:40.369Z,100759.10
2022-08-04T15:50:13.616Z,100747.48
2022-08-04T15:53:00.665Z,100753.52
2022-08-04T15:55:36.650Z,100752.75
2022-08-04T15:58:05.878Z,100750.77
2022-08-04T16:00:49.457Z,100749.56
2022-08-04T16:03:55.413Z,100744.90
2022-08-04T16:06:30.409Z,100743.71
2022-08-04T16:09:01.259Z,100741.83
2022-08-04T16:11:31.013Z,100751.60
2022-08-04T16:13:59.512Z,100746.23
2022-08-04T16:16:36.861Z,100741.79
2022-08-04T16:19:07.222Z,100743.86
2022-08-04T16:21:47.424Z,100742.75
2022-08-04T16:24:39.075Z,100737.11
2022-08-04T16:27:09.470Z,100739.73
2022-08-04T16:29:40.360Z,100733.74
2022-08-04T16:32:16.836Z,100733.02
2022-08-04T16:35:12.745Z,100736.84
2022-08-04T16:37:44.134Z,100737.83
2022-08-04T16:40:35.844Z,100736.05
2022-08-04T16:43:09.895Z,100736.31
2022-08-04T16:45:43.330Z,100730.15
2022-08-04T16:48:12.585Z,100733.05
2022-08-04T16:51:03.220Z,100732.40
2022-08-04T16:54:02.799Z,100735.71
2022-08-04T16:56:33.029Z,100734.84
2022-08-04T16:59:09.897Z,100733.15
2022-08-04T17:01:49.085Z,100729.67
2022-08-04T17:04:17.708Z,100731.88
2022-08-04T17:06:49.461Z,100731.95
2022-08-04T17:09:26.815Z,100728.83
2022-08-04T17:11:57.682Z,100735.83
2022-08-04T17:14:28.360Z,100729.06
2022-08-04T17:16:59.840Z,100730.45
2022-08-04T17:19:28.451Z,100727.92
2022-08-04T17:22:10.336Z,100726.55
2022-08-04T17:24:40.920Z,100727.85
2022-08-04T17:28:09.157Z,100730.65
2022-08-04T17:29:58.884Z,100725.88
2022-08-04T17:32:27.257Z,100726.52
2022-08-04T17:35:01.571Z,100728.12
2022-08-04T17:37:38.395Z,100724.42
2022-08-04T17:40:17.946Z,100724.19
2022-08-04T17:44:01.258Z,100725.77
2022-08-04T17:46:15.957Z,100726.98
2022-08-04T17:49:18.489Z,100725.88
2022-08-04T17:54:40.939Z,100722.23
2022-08-04T17:57:21.307Z,100723.02
2022-08-04T17:59:59.557Z,100721.29
2022-08-04T18:02:34.952Z,100717.59
2022-08-04T18:05:06.175Z,100719.89
2022-08-04T18:08:39.006Z,100715.31
2022-08-04T18:10:51.791Z,100719.44
2022-08-04T18:13:24.577Z,100720.34
2022-08-04T18:16:02.401Z,100722.48
2022-08-04T18:18:31.199Z,100723.05
2022-08-04T18:21:02.928Z,100724.81
2022-08-04T18:23:51.875Z,100728.29
2022-08-04T18:29:08.018Z,100723.18
2022-08-04T18:31:56.584Z,100725.73
2022-08-04T18:34:26.954Z,100728.59
2022-08-04T18:36:59.082Z,100727.45
2022-08-04T18:40:17.437Z,100732.70
2022-08-04T18:42:18.081Z,100732.69
2022-08-04T18:44:52.070Z,100736.81
2022-08-04T18:47:23.299Z,100734.39
2022-08-04T18:51:00.756Z,100738.23
2022-08-04T18:52:42.180Z,100731.42
2022-08-04T18:55:55.814Z,100731.08
2022-08-04T18:58:06.066Z,100730.08
2022-08-04T19:00:36.566Z,100731.71
2022-08-04T19:03:05.028Z,100737.71
2022-08-04T19:05:38.158Z,100741.89
2022-08-04T19:08:32.472Z,100742.58
2022-08-04T19:10:59.573Z,100737.04
2022-08-04T19:13:30.118Z,100736.54
2022-08-04T19:16:03.568Z,100737.46
2022-08-04T19:18:33.840Z,100733.38
2022-08-04T19:21:05.495Z,100729.38
2022-08-04T19:24:28.524Z,100729.76
2022-08-04T19:26:28.215Z,100733.94
2022-08-04T19:28:57.363Z,100731.27
2022-08-04T19:31:34.313Z,100732.23
2022-08-04T19:34:09.503Z,100737.64
2022-08-04T19:36:37.890Z,100736.42
2022-08-04T19:39:11.707Z,100737.30
2022-08-04T19:42:06.282Z,100737.06
2022-08-04T19:44:31.254Z,100735.48
2022-08-04T19:47:02.341Z,100739.42
2022-08-04T19:50:03.785Z,100742.75
2022-08-04T19:52:33.362Z,100746.45
2022-08-04T19:57:52.585Z,100746.73
2022-08-04T20:03:13.405Z,100748.88
2022-08-04T20:05:54.727Z,100755.04
2022-08-04T20:08:29.963Z,100749.42
2022-08-04T20:11:00.200Z,100745.45
2022-08-04T20:13:37.458Z,100747.19
2022-08-04T20:16:20.248Z,100748.95
2022-08-04T20:19:00.923Z,100752.42
2022-08-04T20:21:54.115Z,100748.86
2022-08-04T20:24:37.761Z,100749.71
2022-08-04T20:27:15.466Z,100751.61
2022-08-04T20:29:48.403Z,100751.52
2022-08-04T20:32:21.990Z,100746.65
2022-08-04T20:34:54.042Z,100744.79
2022-08-04T20:37:25.605Z,100742.23
2022-08-04T20:40:14.986Z,100744.77
2022-08-04T20:42:44.986Z,100749.27
2022-08-04T20:45:16.274Z,100751.73
2022-08-04T20:47:53.382Z,100750.01
2022-08-04T20:50:29.848Z,100748.73
2022-08-04T20:53:00.599Z,100751.17
2022-08-04T20:55:30.087Z,100748.52
2022-08-04T20:58:02.995Z,100745.33
2022-08-04T21:00:33.289Z,100747.27
2022-08-04T21:03:02.539Z,100749.24
2022-08-04T21:05:31.533Z,100749.35
2022-08-04T21:08:00.185Z,100748.77
2022-08-04T21:10:30.487Z,100745.27
2022-08-04T21:12:59.690Z,100747.90
2022-08-04T21:15:58.861Z,100751.67
2022-08-04T21:18:16.877Z,100749.55
2022-08-04T21:20:45.390Z,100755.82
2022-08-04T21:23:16.516Z,100754.79
2022-08-04T21:25:50.061Z,100756.03
2022-08-04T21:28:20.524Z,100754.23
2022-08-04T21:30:54.726Z,100756.32
2022-08-04T21:33:50.009Z,100751.15
2022-08-04T21:36:16.123Z,100751.36
2022-08-04T21:38:51.787Z,100747.25
2022-08-04T21:41:24.967Z,100749.68
2022-08-04T21:43:59.699Z,100747.89
2022-08-04T21:46:30.295Z,100748.92
2022-08-04T21:49:00.806Z,100753.70
2022-08-04T21:51:58.373Z,100752.09
2022-08-04T21:54:25.103Z,100754.31
2022-08-04T21:56:53.960Z,100753.70
2022-08-04T21:59:30.628Z,100753.10
2022-08-04T22:02:01.635Z,100754.44
2022-08-04T22:04:31.602Z,100756.39
2022-08-04T22:07:02.779Z,100757.21
2022-08-04T22:09:38.695Z,100760.70
2022-08-04T22:12:11.964Z,100759.39
2022-08-04T22:14:41.945Z,100754.86
2022-08-04T22:17:18.458Z,100751.47
2022-08-04T22:22:37.740Z,100748.98
2022-08-04T22:28:02.850Z,100742.02
2022-08-04T22:30:37.090Z,100741.43
2022-08-04T22:33:08.576Z,100741.86
2022-08-04T22:35:44.268Z,100741.08
2022-08-04T22:38:21.304Z,100741.48
2022-08-04T22:41:02.128Z,100737.76
2022-08-04T22:43:31.834Z,100739.52
2022-08-04T22:46:11.915Z,100737.83
2022-08-04T22:48:43.352Z,100736.23
2022-08-04T22:51:12.871Z,100736.10
2022-08-04T22:53:41.996Z,100730.38
2022-08-04T22:56:37.333Z,100731.20
2022-08-04T22:59:11.400Z,100732.20
2022-08-04T23:01:59.126Z,100731.91
2022-08-04T23:04:33.011Z,100738.02
2022-08-04T23:07:08.994Z,100738.58
2022-08-04T23:09:50.505Z,100736.55
2022-08-04T23:12:25.843Z,100739.14
2022-08-04T23:14:57.198Z,100738.05
2022-08-04T23:17:28.209Z,100738.15
2022-08-04T23:19:59.251Z,100734.04
2022-08-04T23:22:36.929Z,100738.17
2022-08-04T23:25:06.037Z,100737.04
2022-08-04T23:27:50.769Z,100733.12
2022-08-04T23:30:24.685Z,100734.02
2022-08-04T23:32:57.772Z,100730.66
2022-08-04T23:35:28.298Z,100733.69
2022-08-04T23:37:59.870Z,100738.05
2022-08-04T23:40:50.360Z,100733.52
2022-08-04T23:43:19.268Z,100729.10
2022-08-04T23:46:07.453Z,100733.42
2022-08-04T23:48:38.835Z,100732.63
2022-08-04T23:51:14.820Z,100729.67
2022-08-04T23:54:01.881Z,100729.63
2022-08-04T23:56:34.195Z,100727.64
2022-08-04T23:59:03.772Z,100722.68
